sensor_id;sensor_type;location;lat;lon;timestamp;P1;durP1;ratioP1;P2;durP2;ratioP2
10045;SDS011;5063;50.878;4.742;2023-08-17T00:01:43;4.05;;;2.35;;
10045;SDS011;5063;50.878;4.742;2023-08-17T00:04:09;2.53;;;2.33;;
10045;SDS011;5063;50.878;4.742;2023-08-17T00:06:34;3.13;;;2.83;;
10045;SDS011;5063;50.878;4.742;2023-08-17T00:09:00;4.45;;;2.80;;
10045;SDS011;5063;50.878;4.742;2023-08-17T00:11:26;4.20;;;2.90;;
10045;SDS011;5063;50.878;4.742;2023-08-17T00:13:52;4.50;;;3.00;;
10045;SDS011;5063;50.878;4.742;2023-08-17T00:16:17;7.20;;;2.83;;
10045;SDS011;5063;50.878;4.742;2023-08-17T00:18:43;2.53;;;2.30;;
10045;SDS011;5063;50.878;4.742;2023-08-17T00:21:09;3.38;;;2.50;;
10045;SDS011;5063;50.878;4.742;2023-08-17T00:23:35;3.20;;;2.47;;
10045;SDS011;5063;50.878;4.742;2023-08-17T00:26:01;3.27;;;2.70;;
10045;SDS011;5063;50.878;4.742;2023-08-17T00:28:27;3.23;;;2.80;;
10045;SDS011;5063;50.878;4.742;2023-08-17T00:30:52;5.10;;;3.27;;
10045;SDS011;5063;50.878;4.742;2023-08-17T00:33:18;2.77;;;2.43;;
10045;SDS011;5063;50.878;4.742;2023-08-17T00:35:44;5.37;;;2.47;;
10045;SDS011;5063;50.878;4.742;2023-08-17T00:38:11;2.60;;;2.37;;
10045;SDS011;5063;50.878;4.742;2023-08-17T00:40:37;3.53;;;2.33;;
10045;SDS011;5063;50.878;4.742;2023-08-17T00:43:04;2.60;;;2.40;;
10045;SDS011;5063;50.878;4.742;2023-08-17T00:45:30;2.90;;;2.70;;
10045;SDS011;5063;50.878;4.742;2023-08-17T00:47:58;5.33;;;2.90;;
10045;SDS011;5063;50.878;4.742;2023-08-17T00:50:25;6.23;;;2.73;;
10045;SDS011;5063;50.878;4.742;2023-08-17T00:52:52;2.73;;;2.30;;
10045;SDS011;5063;50.878;4.742;2023-08-17T00:55:18;2.70;;;2.50;;
10045;SDS011;5063;50.878;4.742;2023-08-17T00:57:45;4.00;;;2.53;;
10045;SDS011;5063;50.878;4.742;2023-08-17T01:00:12;2.50;;;2.30;;
10045;SDS011;5063;50.878;4.742;2023-08-17T01:02:42;3.00;;;2.70;;
10045;SDS011;5063;50.878;4.742;2023-08-17T01:05:08;6.60;;;3.00;;
10045;SDS011;5063;50.878;4.742;2023-08-17T01:07:34;2.90;;;2.60;;
10045;SDS011;5063;50.878;4.742;2023-08-17T01:10:00;2.77;;;2.43;;
10045;SDS011;5063;50.878;4.742;2023-08-17T01:12:38;3.50;;;2.57;;
10045;SDS011;5063;50.878;4.742;2023-08-17T01:20:50;2.60;;;2.37;;
10045;SDS011;5063;50.878;4.742;2023-08-17T01:23:18;2.90;;;2.60;;
10045;SDS011;5063;50.878;4.742;2023-08-17T01:25:44;3.67;;;2.47;;
10045;SDS011;5063;50.878;4.742;2023-08-17T01:28:10;2.90;;;2.60;;
10045;SDS011;5063;50.878;4.742;2023-08-17T01:30:41;3.67;;;2.20;;
10045;SDS011;5063;50.878;4.742;2023-08-17T01:33:29;3.00;;;2.80;;
10045;SDS011;5063;50.878;4.742;2023-08-17T01:39:10;6.27;;;2.80;;
10045;SDS011;5063;50.878;4.742;2023-08-17T01:41:37;3.67;;;2.60;;
10045;SDS011;5063;50.878;4.742;2023-08-17T01:44:04;3.42;;;2.47;;
10045;SDS011;5063;50.878;4.742;2023-08-17T01:46:31;2.60;;;2.40;;
10045;SDS011;5063;50.878;4.742;2023-08-17T01:48:58;4.30;;;2.63;;
10045;SDS011;5063;50.878;4.742;2023-08-17T01:51:23;4.85;;;2.75;;
10045;SDS011;5063;50.878;4.742;2023-08-17T01:53:50;3.37;;;2.47;;
10045;SDS011;5063;50.878;4.742;2023-08-17T01:56:16;3.67;;;2.40;;
10045;SDS011;5063;50.878;4.742;2023-08-17T01:58:42;4.33;;;2.93;;
10045;SDS011;5063;50.878;4.742;2023-08-17T02:01:08;4.80;;;2.88;;
10045;SDS011;5063;50.878;4.742;2023-08-17T02:03:34;2.90;;;2.37;;
10045;SDS011;5063;50.878;4.742;2023-08-17T02:06:00;7.27;;;2.93;;
10045;SDS011;5063;50.878;4.742;2023-08-17T02:08:26;2.65;;;2.33;;
10045;SDS011;5063;50.878;4.742;2023-08-17T02:10:51;2.93;;;2.70;;
10045;SDS011;5063;50.878;4.742;2023-08-17T02:13:17;4.63;;;3.17;;
10045;SDS011;5063;50.878;4.742;2023-08-17T02:15:44;3.73;;;2.50;;
10045;SDS011;5063;50.878;4.742;2023-08-17T02:18:10;3.23;;;2.93;;
10045;SDS011;5063;50.878;4.742;2023-08-17T02:20:35;5.00;;;3.37;;
10045;SDS011;5063;50.878;4.742;2023-08-17T02:23:01;2.87;;;2.57;;
10045;SDS011;5063;50.878;4.742;2023-08-17T02:25:28;3.27;;;2.60;;
10045;SDS011;5063;50.878;4.742;2023-08-17T02:28:00;5.67;;;3.00;;
10045;SDS011;5063;50.878;4.742;2023-08-17T02:30:29;5.87;;;3.13;;
10045;SDS011;5063;50.878;4.742;2023-08-17T02:32:55;3.47;;;3.17;;
10045;SDS011;5063;50.878;4.742;2023-08-17T02:35:20;2.80;;;2.57;;
10045;SDS011;5063;50.878;4.742;2023-08-17T02:37:46;4.57;;;3.00;;
10045;SDS011;5063;50.878;4.742;2023-08-17T02:40:12;4.20;;;2.80;;
10045;SDS011;5063;50.878;4.742;2023-08-17T02:42:37;4.80;;;2.73;;
10045;SDS011;5063;50.878;4.742;2023-08-17T02:45:05;4.53;;;3.40;;
10045;SDS011;5063;50.878;4.742;2023-08-17T02:47:31;5.20;;;3.43;;
10045;SDS011;5063;50.878;4.742;2023-08-17T02:49:57;3.50;;;2.83;;
10045;SDS011;5063;50.878;4.742;2023-08-17T02:52:23;7.27;;;2.67;;
10045;SDS011;5063;50.878;4.742;2023-08-17T02:54:49;3.57;;;3.00;;
10045;SDS011;5063;50.878;4.742;2023-08-17T02:57:14;3.37;;;2.83;;
10045;SDS011;5063;50.878;4.742;2023-08-17T02:59:40;3.17;;;2.80;;
10045;SDS011;5063;50.878;4.742;2023-08-17T03:02:06;4.43;;;3.40;;
10045;SDS011;5063;50.878;4.742;2023-08-17T03:04:31;5.87;;;3.30;;
10045;SDS011;5063;50.878;4.742;2023-08-17T03:06:58;11.50;;;3.53;;
10045;SDS011;5063;50.878;4.742;2023-08-17T03:09:24;3.40;;;3.10;;
10045;SDS011;5063;50.878;4.742;2023-08-17T03:11:49;6.60;;;3.90;;
10045;SDS011;5063;50.878;4.742;2023-08-17T03:14:15;3.50;;;2.77;;
10045;SDS011;5063;50.878;4.742;2023-08-17T03:16:41;5.93;;;3.67;;
10045;SDS011;5063;50.878;4.742;2023-08-17T03:19:07;4.30;;;3.17;;
10045;SDS011;5063;50.878;4.742;2023-08-17T03:21:35;6.07;;;3.10;;
10045;SDS011;5063;50.878;4.742;2023-08-17T03:24:01;3.63;;;3.03;;
10045;SDS011;5063;50.878;4.742;2023-08-17T03:26:27;4.80;;;3.03;;
10045;SDS011;5063;50.878;4.742;2023-08-17T03:28:53;2.90;;;2.60;;
10045;SDS011;5063;50.878;4.742;2023-08-17T03:31:22;4.57;;;2.70;;
10045;SDS011;5063;50.878;4.742;2023-08-17T03:33:48;6.33;;;3.00;;
10045;SDS011;5063;50.878;4.742;2023-08-17T03:36:14;5.60;;;3.63;;
10045;SDS011;5063;50.878;4.742;2023-08-17T03:38:40;4.90;;;3.07;;
10045;SDS011;5063;50.878;4.742;2023-08-17T03:41:06;3.60;;;3.03;;
10045;SDS011;5063;50.878;4.742;2023-08-17T03:43:32;3.93;;;3.27;;
10045;SDS011;5063;50.878;4.742;2023-08-17T03:45:58;7.43;;;2.83;;
10045;SDS011;5063;50.878;4.742;2023-08-17T03:48:24;3.80;;;2.90;;
10045;SDS011;5063;50.878;4.742;2023-08-17T03:50:56;4.73;;;3.33;;
10045;SDS011;5063;50.878;4.742;2023-08-17T03:53:22;4.00;;;2.90;;
10045;SDS011;5063;50.878;4.742;2023-08-17T03:55:48;5.00;;;3.30;;
10045;SDS011;5063;50.878;4.742;2023-08-17T03:58:15;4.13;;;3.37;;
10045;SDS011;5063;50.878;4.742;2023-08-17T04:00:41;5.53;;;3.13;;
10045;SDS011;5063;50.878;4.742;2023-08-17T04:03:07;4.57;;;3.30;;
10045;SDS011;5063;50.878;4.742;2023-08-17T04:05:33;5.53;;;2.97;;
10045;SDS011;5063;50.878;4.742;2023-08-17T04:08:00;5.40;;;3.13;;
10045;SDS011;5063;50.878;4.742;2023-08-17T04:10:28;4.07;;;3.00;;
10045;SDS011;5063;50.878;4.742;2023-08-17T04:12:54;4.20;;;2.77;;
10045;SDS011;5063;50.878;4.742;2023-08-17T04:15:23;2.77;;;2.57;;
10045;SDS011;5063;50.878;4.742;2023-08-17T04:17:48;4.40;;;3.00;;
10045;SDS011;5063;50.878;4.742;2023-08-17T04:20:14;5.70;;;2.97;;
10045;SDS011;5063;50.878;4.742;2023-08-17T04:22:40;4.33;;;2.97;;
10045;SDS011;5063;50.878;4.742;2023-08-17T04:25:06;2.93;;;2.73;;
10045;SDS011;5063;50.878;4.742;2023-08-17T04:27:32;4.60;;;2.90;;
10045;SDS011;5063;50.878;4.742;2023-08-17T04:29:58;5.37;;;3.40;;
10045;SDS011;5063;50.878;4.742;2023-08-17T04:32:25;3.00;;;2.70;;
10045;SDS011;5063;50.878;4.742;2023-08-17T04:34:50;6.80;;;3.40;;
10045;SDS011;5063;50.878;4.742;2023-08-17T04:37:16;3.20;;;2.90;;
10045;SDS011;5063;50.878;4.742;2023-08-17T04:39:42;6.60;;;2.93;;
10045;SDS011;5063;50.878;4.742;2023-08-17T04:42:08;4.53;;;2.97;;
10045;SDS011;5063;50.878;4.742;2023-08-17T04:44:34;3.40;;;3.10;;
10045;SDS011;5063;50.878;4.742;2023-08-17T04:47:00;3.00;;;2.70;;
10045;SDS011;5063;50.878;4.742;2023-08-17T04:49:26;8.27;;;3.20;;
10045;SDS011;5063;50.878;4.742;2023-08-17T04:51:52;7.23;;;3.40;;
10045;SDS011;5063;50.878;4.742;2023-08-17T04:54:17;4.03;;;2.60;;
10045;SDS011;5063;50.878;4.742;2023-08-17T04:56:43;4.67;;;3.43;;
10045;SDS011;5063;50.878;4.742;2023-08-17T04:59:09;4.00;;;2.87;;
10045;SDS011;5063;50.878;4.742;2023-08-17T05:01:35;5.90;;;3.33;;
10045;SDS011;5063;50.878;4.742;2023-08-17T05:04:01;2.90;;;2.70;;
10045;SDS011;5063;50.878;4.742;2023-08-17T05:06:29;4.77;;;2.90;;
10045;SDS011;5063;50.878;4.742;2023-08-17T05:08:55;5.13;;;2.90;;
10045;SDS011;5063;50.878;4.742;2023-08-17T05:11:21;5.00;;;3.37;;
10045;SDS011;5063;50.878;4.742;2023-08-17T05:13:47;3.10;;;2.60;;
10045;SDS011;5063;50.878;4.742;2023-08-17T05:16:13;4.53;;;2.93;;
10045;SDS011;5063;50.878;4.742;2023-08-17T05:18:39;3.23;;;2.90;;
10045;SDS011;5063;50.878;4.742;2023-08-17T05:21:05;5.20;;;2.50;;
10045;SDS011;5063;50.878;4.742;2023-08-17T05:23:31;5.97;;;2.90;;
10045;SDS011;5063;50.878;4.742;2023-08-17T05:25:57;4.90;;;2.97;;
10045;SDS011;5063;50.878;4.742;2023-08-17T05:28:23;5.93;;;2.77;;
10045;SDS011;5063;50.878;4.742;2023-08-17T05:30:49;5.60;;;3.20;;
10045;SDS011;5063;50.878;4.742;2023-08-17T05:33:15;3.47;;;2.63;;
10045;SDS011;5063;50.878;4.742;2023-08-17T05:35:40;3.47;;;2.73;;
10045;SDS011;5063;50.878;4.742;2023-08-17T05:38:07;5.70;;;2.97;;
10045;SDS011;5063;50.878;4.742;2023-08-17T05:40:35;6.27;;;3.37;;
10045;SDS011;5063;50.878;4.742;2023-08-17T05:43:01;4.33;;;2.87;;
10045;SDS011;5063;50.878;4.742;2023-08-17T05:45:27;3.90;;;2.83;;
10045;SDS011;5063;50.878;4.742;2023-08-17T05:47:53;2.93;;;2.73;;
10045;SDS011;5063;50.878;4.742;2023-08-17T05:50:18;4.07;;;2.35;;
10045;SDS011;5063;50.878;4.742;2023-08-17T05:52:44;6.18;;;2.83;;
10045;SDS011;5063;50.878;4.742;2023-08-17T05:55:10;6.13;;;3.67;;
10045;SDS011;5063;50.878;4.742;2023-08-17T05:57:36;5.68;;;3.53;;
10045;SDS011;5063;50.878;4.742;2023-08-17T06:00:01;5.45;;;3.35;;
10045;SDS011;5063;50.878;4.742;2023-08-17T06:02:27;6.07;;;2.95;;
10045;SDS011;5063;50.878;4.742;2023-08-17T06:04:53;4.73;;;3.40;;
10045;SDS011;5063;50.878;4.742;2023-08-17T06:07:19;5.77;;;3.40;;
10045;SDS011;5063;50.878;4.742;2023-08-17T06:09:44;4.17;;;2.73;;
10045;SDS011;5063;50.878;4.742;2023-08-17T06:12:10;8.30;;;3.75;;
10045;SDS011;5063;50.878;4.742;2023-08-17T06:14:36;3.85;;;3.33;;
10045;SDS011;5063;50.878;4.742;2023-08-17T06:17:02;4.80;;;3.70;;
10045;SDS011;5063;50.878;4.742;2023-08-17T06:19:28;4.93;;;3.80;;
10045;SDS011;5063;50.878;4.742;2023-08-17T06:21:53;6.85;;;3.65;;
10045;SDS011;5063;50.878;4.742;2023-08-17T06:24:19;5.53;;;3.72;;
10045;SDS011;5063;50.878;4.742;2023-08-17T06:26:45;5.80;;;3.17;;
10045;SDS011;5063;50.878;4.742;2023-08-17T06:29:11;6.13;;;2.72;;
10045;SDS011;5063;50.878;4.742;2023-08-17T06:31:37;6.07;;;3.10;;
10045;SDS011;5063;50.878;4.742;2023-08-17T06:34:02;3.77;;;3.10;;
10045;SDS011;5063;50.878;4.742;2023-08-17T06:36:32;8.33;;;3.20;;
10045;SDS011;5063;50.878;4.742;2023-08-17T06:38:58;3.78;;;2.85;;
10045;SDS011;5063;50.878;4.742;2023-08-17T06:41:24;5.43;;;3.15;;
10045;SDS011;5063;50.878;4.742;2023-08-17T06:43:50;4.55;;;2.58;;
10045;SDS011;5063;50.878;4.742;2023-08-17T06:46:16;4.18;;;3.33;;
10045;SDS011;5063;50.878;4.742;2023-08-17T06:48:42;4.13;;;3.50;;
10045;SDS011;5063;50.878;4.742;2023-08-17T06:51:08;5.03;;;4.10;;
10045;SDS011;5063;50.878;4.742;2023-08-17T06:53:34;6.47;;;4.10;;
10045;SDS011;5063;50.878;4.742;2023-08-17T06:56:00;7.15;;;4.18;;
10045;SDS011;5063;50.878;4.742;2023-08-17T06:58:26;6.28;;;3.97;;
10045;SDS011;5063;50.878;4.742;2023-08-17T07:00:52;5.53;;;3.87;;
10045;SDS011;5063;50.878;4.742;2023-08-17T07:03:17;5.97;;;4.20;;
10045;SDS011;5063;50.878;4.742;2023-08-17T07:05:43;5.40;;;4.13;;
10045;SDS011;5063;50.878;4.742;2023-08-17T07:08:09;5.03;;;4.20;;
10045;SDS011;5063;50.878;4.742;2023-08-17T07:10:35;10.10;;;4.47;;
10045;SDS011;5063;50.878;4.742;2023-08-17T07:13:01;9.38;;;4.70;;
10045;SDS011;5063;50.878;4.742;2023-08-17T07:15:30;6.95;;;4.57;;
10045;SDS011;5063;50.878;4.742;2023-08-17T07:17:56;5.80;;;3.95;;
10045;SDS011;5063;50.878;4.742;2023-08-17T07:20:22;8.17;;;4.90;;
10045;SDS011;5063;50.878;4.742;2023-08-17T07:22:47;5.68;;;4.38;;
10045;SDS011;5063;50.878;4.742;2023-08-17T07:25:13;10.15;;;4.78;;
10045;SDS011;5063;50.878;4.742;2023-08-17T07:27:39;11.25;;;4.65;;
10045;SDS011;5063;50.878;4.742;2023-08-17T07:30:05;5.85;;;4.53;;
10045;SDS011;5063;50.878;4.742;2023-08-17T07:32:32;7.70;;;4.57;;
10045;SDS011;5063;50.878;4.742;2023-08-17T07:34:58;8.23;;;4.30;;
10045;SDS011;5063;50.878;4.742;2023-08-17T07:37:24;5.05;;;4.15;;
10045;SDS011;5063;50.878;4.742;2023-08-17T07:39:57;5.07;;;3.67;;
10045;SDS011;5063;50.878;4.742;2023-08-17T07:42:23;4.50;;;3.80;;
10045;SDS011;5063;50.878;4.742;2023-08-17T07:44:48;4.53;;;3.78;;
10045;SDS011;5063;50.878;4.742;2023-08-17T07:47:14;8.38;;;4.32;;
10045;SDS011;5063;50.878;4.742;2023-08-17T07:49:39;6.97;;;3.63;;
10045;SDS011;5063;50.878;4.742;2023-08-17T07:52:05;3.80;;;3.40;;
10045;SDS011;5063;50.878;4.742;2023-08-17T07:54:31;5.47;;;4.00;;
10045;SDS011;5063;50.878;4.742;2023-08-17T07:56:57;4.53;;;3.38;;
10045;SDS011;5063;50.878;4.742;2023-08-17T07:59:23;7.72;;;3.83;;
10045;SDS011;5063;50.878;4.742;2023-08-17T08:01:49;6.13;;;4.47;;
10045;SDS011;5063;50.878;4.742;2023-08-17T08:04:14;6.72;;;4.15;;
10045;SDS011;5063;50.878;4.742;2023-08-17T08:06:41;6.97;;;3.75;;
10045;SDS011;5063;50.878;4.742;2023-08-17T08:09:07;7.22;;;3.72;;
10045;SDS011;5063;50.878;4.742;2023-08-17T08:11:33;5.57;;;4.07;;
10045;SDS011;5063;50.878;4.742;2023-08-17T08:13:59;5.43;;;3.65;;
10045;SDS011;5063;50.878;4.742;2023-08-17T08:16:24;6.88;;;4.15;;
10045;SDS011;5063;50.878;4.742;2023-08-17T08:18:50;6.15;;;4.20;;
10045;SDS011;5063;50.878;4.742;2023-08-17T08:21:16;7.20;;;4.38;;
10045;SDS011;5063;50.878;4.742;2023-08-17T08:23:41;10.40;;;5.47;;
10045;SDS011;5063;50.878;4.742;2023-08-17T08:26:07;6.70;;;4.88;;
10045;SDS011;5063;50.878;4.742;2023-08-17T08:28:33;10.18;;;6.20;;
10045;SDS011;5063;50.878;4.742;2023-08-17T08:31:02;7.28;;;4.95;;
10045;SDS011;5063;50.878;4.742;2023-08-17T08:33:29;9.95;;;5.90;;
10045;SDS011;5063;50.878;4.742;2023-08-17T08:35:55;9.85;;;5.85;;
10045;SDS011;5063;50.878;4.742;2023-08-17T08:38:20;9.65;;;5.95;;
10045;SDS011;5063;50.878;4.742;2023-08-17T08:40:47;8.35;;;5.60;;
10045;SDS011;5063;50.878;4.742;2023-08-17T08:43:16;12.02;;;6.13;;
10045;SDS011;5063;50.878;4.742;2023-08-17T08:45:42;9.50;;;5.43;;
10045;SDS011;5063;50.878;4.742;2023-08-17T08:48:10;10.27;;;6.28;;
10045;SDS011;5063;50.878;4.742;2023-08-17T08:50:38;8.27;;;5.15;;
10045;SDS011;5063;50.878;4.742;2023-08-17T08:53:09;10.13;;;5.93;;
10045;SDS011;5063;50.878;4.742;2023-08-17T08:55:39;8.40;;;5.45;;
10045;SDS011;5063;50.878;4.742;2023-08-17T08:58:19;6.68;;;5.38;;
10045;SDS011;5063;50.878;4.742;2023-08-17T09:00:47;7.30;;;4.88;;
10045;SDS011;5063;50.878;4.742;2023-08-17T09:03:13;10.18;;;5.85;;
10045;SDS011;5063;50.878;4.742;2023-08-17T09:05:42;8.80;;;5.60;;
10045;SDS011;5063;50.878;4.742;2023-08-17T09:08:12;9.48;;;5.78;;
10045;SDS011;5063;50.878;4.742;2023-08-17T09:10:39;6.85;;;5.55;;
10045;SDS011;5063;50.878;4.742;2023-08-17T09:13:06;10.85;;;7.82;;
10045;SDS011;5063;50.878;4.742;2023-08-17T09:15:33;10.15;;;6.85;;
10045;SDS011;5063;50.878;4.742;2023-08-17T09:17:58;12.80;;;6.38;;
10045;SDS011;5063;50.878;4.742;2023-08-17T09:23:20;9.50;;;6.70;;
10045;SDS011;5063;50.878;4.742;2023-08-17T09:25:47;9.18;;;6.60;;
10045;SDS011;5063;50.878;4.742;2023-08-17T09:28:15;8.65;;;6.22;;
10045;SDS011;5063;50.878;4.742;2023-08-17T09:30:55;10.48;;;7.20;;
10045;SDS011;5063;50.878;4.742;2023-08-17T09:33:30;12.07;;;7.13;;
10045;SDS011;5063;50.878;4.742;2023-08-17T09:35:58;10.32;;;7.38;;
10045;SDS011;5063;50.878;4.742;2023-08-17T09:38:25;7.28;;;5.85;;
10045;SDS011;5063;50.878;4.742;2023-08-17T09:40:51;10.00;;;7.75;;
10045;SDS011;5063;50.878;4.742;2023-08-17T09:43:18;11.40;;;7.85;;
10045;SDS011;5063;50.878;4.742;2023-08-17T09:45:45;11.57;;;8.00;;
10045;SDS011;5063;50.878;4.742;2023-08-17T09:48:14;9.93;;;7.90;;
10045;SDS011;5063;50.878;4.742;2023-08-17T09:50:42;13.30;;;8.82;;
10045;SDS011;5063;50.878;4.742;2023-08-17T09:53:12;12.20;;;8.85;;
10045;SDS011;5063;50.878;4.742;2023-08-17T09:55:40;11.52;;;8.70;;
10045;SDS011;5063;50.878;4.742;2023-08-17T09:58:07;12.88;;;8.65;;
10045;SDS011;5063;50.878;4.742;2023-08-17T10:00:34;10.00;;;7.78;;
10045;SDS011;5063;50.878;4.742;2023-08-17T10:03:01;9.38;;;7.38;;
10045;SDS011;5063;50.878;4.742;2023-08-17T10:05:31;10.43;;;7.55;;
10045;SDS011;5063;50.878;4.742;2023-08-17T10:08:04;8.82;;;7.40;;
10045;SDS011;5063;50.878;4.742;2023-08-17T10:10:34;8.93;;;7.72;;
10045;SDS011;5063;50.878;4.742;2023-08-17T10:15:48;7.32;;;5.93;;
10045;SDS011;5063;50.878;4.742;2023-08-17T10:18:34;8.85;;;6.50;;
10045;SDS011;5063;50.878;4.742;2023-08-17T10:21:13;10.27;;;6.47;;
10045;SDS011;5063;50.878;4.742;2023-08-17T10:23:42;7.97;;;6.53;;
10045;SDS011;5063;50.878;4.742;2023-08-17T10:26:10;9.77;;;7.72;;
10045;SDS011;5063;50.878;4.742;2023-08-17T10:28:36;9.13;;;7.03;;
10045;SDS011;5063;50.878;4.742;2023-08-17T10:31:02;8.43;;;6.72;;
10045;SDS011;5063;50.878;4.742;2023-08-17T10:33:28;8.15;;;7.15;;
10045;SDS011;5063;50.878;4.742;2023-08-17T10:35:55;8.40;;;6.95;;
10045;SDS011;5063;50.878;4.742;2023-08-17T10:38:21;7.85;;;7.10;;
10045;SDS011;5063;50.878;4.742;2023-08-17T10:41:07;8.35;;;7.35;;
10045;SDS011;5063;50.878;4.742;2023-08-17T10:43:58;11.05;;;7.97;;
10045;SDS011;5063;50.878;4.742;2023-08-17T10:46:34;8.10;;;7.20;;
10045;SDS011;5063;50.878;4.742;2023-08-17T10:49:03;10.50;;;6.35;;
10045;SDS011;5063;50.878;4.742;2023-08-17T10:51:33;10.30;;;7.63;;
10045;SDS011;5063;50.878;4.742;2023-08-17T10:54:01;9.48;;;7.90;;
10045;SDS011;5063;50.878;4.742;2023-08-17T10:56:28;11.25;;;7.72;;
10045;SDS011;5063;50.878;4.742;2023-08-17T10:58:58;9.35;;;7.78;;
10045;SDS011;5063;50.878;4.742;2023-08-17T11:01:35;9.52;;;8.07;;
10045;SDS011;5063;50.878;4.742;2023-08-17T11:04:10;11.13;;;8.02;;
10045;SDS011;5063;50.878;4.742;2023-08-17T11:06:43;13.43;;;9.60;;
10045;SDS011;5063;50.878;4.742;2023-08-17T11:09:10;9.82;;;8.23;;
10045;SDS011;5063;50.878;4.742;2023-08-17T11:11:36;10.73;;;9.63;;
10045;SDS011;5063;50.878;4.742;2023-08-17T11:14:02;10.52;;;9.35;;
10045;SDS011;5063;50.878;4.742;2023-08-17T11:16:29;11.48;;;9.57;;
10045;SDS011;5063;50.878;4.742;2023-08-17T11:18:55;14.20;;;10.13;;
10045;SDS011;5063;50.878;4.742;2023-08-17T11:21:23;14.18;;;10.63;;
10045;SDS011;5063;50.878;4.742;2023-08-17T11:23:49;12.18;;;10.30;;
10045;SDS011;5063;50.878;4.742;2023-08-17T11:26:18;11.98;;;10.27;;
10045;SDS011;5063;50.878;4.742;2023-08-17T11:28:44;11.70;;;10.43;;
10045;SDS011;5063;50.878;4.742;2023-08-17T11:31:12;13.63;;;10.00;;
10045;SDS011;5063;50.878;4.742;2023-08-17T11:33:40;14.82;;;10.07;;
10045;SDS011;5063;50.878;4.742;2023-08-17T11:36:07;12.13;;;9.57;;
10045;SDS011;5063;50.878;4.742;2023-08-17T11:38:34;10.55;;;9.45;;
10045;SDS011;5063;50.878;4.742;2023-08-17T11:41:01;10.95;;;9.52;;
10045;SDS011;5063;50.878;4.742;2023-08-17T11:43:31;9.73;;;8.73;;
10045;SDS011;5063;50.878;4.742;2023-08-17T11:45:57;13.95;;;10.35;;
10045;SDS011;5063;50.878;4.742;2023-08-17T11:48:24;12.07;;;10.05;;
10045;SDS011;5063;50.878;4.742;2023-08-17T11:50:51;12.52;;;9.75;;
10045;SDS011;5063;50.878;4.742;2023-08-17T11:53:17;10.40;;;9.40;;
10045;SDS011;5063;50.878;4.742;2023-08-17T11:55:43;11.20;;;9.32;;
10045;SDS011;5063;50.878;4.742;2023-08-17T11:58:09;12.40;;;8.88;;
10045;SDS011;5063;50.878;4.742;2023-08-17T12:00:35;11.73;;;9.95;;
10045;SDS011;5063;50.878;4.742;2023-08-17T12:03:04;10.40;;;8.93;;
10045;SDS011;5063;50.878;4.742;2023-08-17T12:05:30;12.60;;;9.75;;
10045;SDS011;5063;50.878;4.742;2023-08-17T12:07:57;13.90;;;10.40;;
10045;SDS011;5063;50.878;4.742;2023-08-17T12:10:27;10.77;;;9.43;;
10045;SDS011;5063;50.878;4.742;2023-08-17T12:12:56;13.50;;;10.07;;
10045;SDS011;5063;50.878;4.742;2023-08-17T12:15:24;18.10;;;11.60;;
10045;SDS011;5063;50.878;4.742;2023-08-17T12:17:50;13.30;;;10.00;;
10045;SDS011;5063;50.878;4.742;2023-08-17T12:20:18;12.43;;;9.77;;
10045;SDS011;5063;50.878;4.742;2023-08-17T12:22:48;12.48;;;11.02;;
10045;SDS011;5063;50.878;4.742;2023-08-17T12:25:14;13.55;;;10.23;;
10045;SDS011;5063;50.878;4.742;2023-08-17T12:27:40;13.80;;;10.82;;
10045;SDS011;5063;50.878;4.742;2023-08-17T12:30:13;13.20;;;10.15;;
10045;SDS011;5063;50.878;4.742;2023-08-17T12:32:50;13.68;;;10.65;;
10045;SDS011;5063;50.878;4.742;2023-08-17T12:35:15;15.65;;;11.10;;
10045;SDS011;5063;50.878;4.742;2023-08-17T12:37:41;10.45;;;9.35;;
10045;SDS011;5063;50.878;4.742;2023-08-17T12:40:07;14.73;;;10.52;;
10045;SDS011;5063;50.878;4.742;2023-08-17T12:42:35;11.82;;;10.60;;
10045;SDS011;5063;50.878;4.742;2023-08-17T12:45:00;16.40;;;11.35;;
10045;SDS011;5063;50.878;4.742;2023-08-17T12:47:26;16.50;;;10.88;;
10045;SDS011;5063;50.878;4.742;2023-08-17T12:49:52;15.15;;;11.25;;
10045;SDS011;5063;50.878;4.742;2023-08-17T12:52:18;13.90;;;12.20;;
10045;SDS011;5063;50.878;4.742;2023-08-17T12:54:44;14.95;;;12.05;;
10045;SDS011;5063;50.878;4.742;2023-08-17T12:57:09;15.00;;;11.65;;
10045;SDS011;5063;50.878;4.742;2023-08-17T12:59:35;14.30;;;11.50;;
10045;SDS011;5063;50.878;4.742;2023-08-17T13:02:01;17.88;;;11.98;;
10045;SDS011;5063;50.878;4.742;2023-08-17T13:04:26;14.60;;;11.32;;
10045;SDS011;5063;50.878;4.742;2023-08-17T13:06:52;19.42;;;11.23;;
10045;SDS011;5063;50.878;4.742;2023-08-17T13:09:19;15.80;;;10.88;;
10045;SDS011;5063;50.878;4.742;2023-08-17T13:11:45;11.35;;;10.18;;
10045;SDS011;5063;50.878;4.742;2023-08-17T13:14:12;11.32;;;10.00;;
10045;SDS011;5063;50.878;4.742;2023-08-17T13:16:39;11.90;;;10.35;;
10045;SDS011;5063;50.878;4.742;2023-08-17T13:19:05;12.35;;;10.55;;
10045;SDS011;5063;50.878;4.742;2023-08-17T13:21:30;11.57;;;10.15;;
10045;SDS011;5063;50.878;4.742;2023-08-17T13:23:56;11.57;;;9.77;;
10045;SDS011;5063;50.878;4.742;2023-08-17T13:26:22;11.25;;;9.52;;
10045;SDS011;5063;50.878;4.742;2023-08-17T13:28:47;14.40;;;10.13;;
10045;SDS011;5063;50.878;4.742;2023-08-17T13:31:13;14.82;;;9.15;;
10045;SDS011;5063;50.878;4.742;2023-08-17T13:33:39;12.43;;;10.43;;
10045;SDS011;5063;50.878;4.742;2023-08-17T13:36:05;16.92;;;9.68;;
10045;SDS011;5063;50.878;4.742;2023-08-17T13:38:31;15.70;;;10.75;;
10045;SDS011;5063;50.878;4.742;2023-08-17T13:40:56;11.80;;;9.55;;
10045;SDS011;5063;50.878;4.742;2023-08-17T13:43:22;16.00;;;10.27;;
10045;SDS011;5063;50.878;4.742;2023-08-17T13:45:48;15.23;;;10.82;;
10045;SDS011;5063;50.878;4.742;2023-08-17T13:48:15;13.63;;;11.13;;
10045;SDS011;5063;50.878;4.742;2023-08-17T13:50:40;17.80;;;10.65;;
10045;SDS011;5063;50.878;4.742;2023-08-17T13:53:06;13.15;;;10.65;;
10045;SDS011;5063;50.878;4.742;2023-08-17T13:55:32;14.27;;;10.68;;
10045;SDS011;5063;50.878;4.742;2023-08-17T13:57:58;15.05;;;11.10;;
10045;SDS011;5063;50.878;4.742;2023-08-17T14:00:25;13.07;;;9.73;;
10045;SDS011;5063;50.878;4.742;2023-08-17T14:02:51;12.10;;;10.60;;
10045;SDS011;5063;50.878;4.742;2023-08-17T14:05:17;11.95;;;10.05;;
10045;SDS011;5063;50.878;4.742;2023-08-17T14:07:43;13.07;;;10.05;;
10045;SDS011;5063;50.878;4.742;2023-08-17T14:10:09;16.60;;;12.07;;
10045;SDS011;5063;50.878;4.742;2023-08-17T14:12:35;13.90;;;11.40;;
10045;SDS011;5063;50.878;4.742;2023-08-17T14:15:01;14.45;;;10.88;;
10045;SDS011;5063;50.878;4.742;2023-08-17T14:17:26;14.32;;;11.00;;
10045;SDS011;5063;50.878;4.742;2023-08-17T14:19:52;14.18;;;11.77;;
10045;SDS011;5063;50.878;4.742;2023-08-17T14:22:19;11.55;;;10.27;;
10045;SDS011;5063;50.878;4.742;2023-08-17T14:24:45;13.95;;;10.93;;
10045;SDS011;5063;50.878;4.742;2023-08-17T14:27:11;13.85;;;11.40;;
10045;SDS011;5063;50.878;4.742;2023-08-17T14:29:37;14.95;;;10.70;;
10045;SDS011;5063;50.878;4.742;2023-08-17T14:32:03;13.05;;;11.07;;
10045;SDS011;5063;50.878;4.742;2023-08-17T14:34:29;16.58;;;11.88;;
10045;SDS011;5063;50.878;4.742;2023-08-17T14:36:54;13.60;;;11.07;;
10045;SDS011;5063;50.878;4.742;2023-08-17T14:39:20;14.38;;;10.63;;
10045;SDS011;5063;50.878;4.742;2023-08-17T14:41:46;13.65;;;10.88;;
10045;SDS011;5063;50.878;4.742;2023-08-17T14:44:11;14.15;;;10.80;;
10045;SDS011;5063;50.878;4.742;2023-08-17T14:46:37;13.27;;;11.35;;
10045;SDS011;5063;50.878;4.742;2023-08-17T14:49:07;12.73;;;11.38;;
10045;SDS011;5063;50.878;4.742;2023-08-17T14:51:37;13.93;;;10.02;;
10045;SDS011;5063;50.878;4.742;2023-08-17T14:54:05;12.55;;;10.30;;
10045;SDS011;5063;50.878;4.742;2023-08-17T14:56:31;13.55;;;10.85;;
10045;SDS011;5063;50.878;4.742;2023-08-17T14:58:57;14.07;;;11.18;;
10045;SDS011;5063;50.878;4.742;2023-08-17T15:01:23;16.05;;;12.07;;
10045;SDS011;5063;50.878;4.742;2023-08-17T15:03:49;13.32;;;11.07;;
10045;SDS011;5063;50.878;4.742;2023-08-17T15:06:15;12.65;;;11.35;;